sensor_id;sensor_type;location;lat;lon;timestamp;temperature;humidity
74101;DHT22;62462;52.530;21.682;2022-10-16T00:01:13;16.60;67.90
74101;DHT22;62462;52.530;21.682;2022-10-16T00:03:40;16.60;67.80
74101;DHT22;62462;52.530;21.682;2022-10-16T00:06:07;16.60;67.90
74101;DHT22;62462;52.530;21.682;2022-10-16T00:08:34;16.50;67.90
74101;DHT22;62462;52.530;21.682;2022-10-16T00:11:08;16.50;67.90
74101;DHT22;62462;52.530;21.682;2022-10-16T00:13:36;16.50;67.90
74101;DHT22;62462;52.530;21.682;2022-10-16T00:16:03;16.50;67.90
74101;DHT22;62462;52.530;21.682;2022-10-16T00:18:29;16.50;67.80
74101;DHT22;62462;52.530;21.682;2022-10-16T00:20:56;16.50;67.80
74101;DHT22;62462;52.530;21.682;2022-10-16T00:23:26;16.40;67.80
74101;DHT22;62462;52.530;21.682;2022-10-16T00:25:59;16.50;67.90
74101;DHT22;62462;52.530;21.682;2022-10-16T00:28:26;16.50;68.00
74101;DHT22;62462;52.530;21.682;2022-10-16T00:30:51;16.50;68.00
74101;DHT22;62462;52.530;21.682;2022-10-16T00:33:17;16.50;68.00
74101;DHT22;62462;52.530;21.682;2022-10-16T00:35:43;16.40;68.10
74101;DHT22;62462;52.530;21.682;2022-10-16T00:38:09;16.40;68.20
74101;DHT22;62462;52.530;21.682;2022-10-16T00:40:35;16.50;68.30
74101;DHT22;62462;52.530;21.682;2022-10-16T00:43:01;16.50;68.20
74101;DHT22;62462;52.530;21.682;2022-10-16T00:45:27;16.50;68.20
74101;DHT22;62462;52.530;21.682;2022-10-16T00:47:54;16.50;68.30
74101;DHT22;62462;52.530;21.682;2022-10-16T00:50:26;16.50;68.50
74101;DHT22;62462;52.530;21.682;2022-10-16T00:52:53;16.40;68.60
74101;DHT22;62462;52.530;21.682;2022-10-16T00:55:20;16.40;68.60
74101;DHT22;62462;52.530;21.682;2022-10-16T00:57:47;16.40;68.60
74101;DHT22;62462;52.530;21.682;2022-10-16T01:00:19;16.40;68.90
74101;DHT22;62462;52.530;21.682;2022-10-16T01:02:51;16.40;68.90
74101;DHT22;62462;52.530;21.682;2022-10-16T01:05:17;16.40;68.90
74101;DHT22;62462;52.530;21.682;2022-10-16T01:08:08;16.40;68.90
74101;DHT22;62462;52.530;21.682;2022-10-16T01:13:15;16.40;69.00
74101;DHT22;62462;52.530;21.682;2022-10-16T01:15:46;16.40;69.00
74101;DHT22;62462;52.530;21.682;2022-10-16T01:31:49;16.30;69.30
74101;DHT22;62462;52.530;21.682;2022-10-16T01:34:21;16.30;69.30
74101;DHT22;62462;52.530;21.682;2022-10-16T01:37:05;16.30;69.40
74101;DHT22;62462;52.530;21.682;2022-10-16T01:39:35;16.30;69.70
74101;DHT22;62462;52.530;21.682;2022-10-16T01:42:13;16.30;69.60
74101;DHT22;62462;52.530;21.682;2022-10-16T01:44:41;16.20;69.90
74101;DHT22;62462;52.530;21.682;2022-10-16T01:47:09;16.20;70.00
74101;DHT22;62462;52.530;21.682;2022-10-16T01:49:38;16.20;69.90
74101;DHT22;62462;52.530;21.682;2022-10-16T01:52:08;16.20;69.90
74101;DHT22;62462;52.530;21.682;2022-10-16T01:54:37;16.20;69.80
74101;DHT22;62462;52.530;21.682;2022-10-16T01:57:04;16.20;69.80
74101;DHT22;62462;52.530;21.682;2022-10-16T01:59:33;16.20;69.80
74101;DHT22;62462;52.530;21.682;2022-10-16T02:02:06;16.20;69.80
74101;DHT22;62462;52.530;21.682;2022-10-16T02:04:38;16.20;69.70
74101;DHT22;62462;52.530;21.682;2022-10-16T02:07:05;16.20;69.50
74101;DHT22;62462;52.530;21.682;2022-10-16T02:09:33;16.30;69.60
74101;DHT22;62462;52.530;21.682;2022-10-16T02:12:03;16.30;69.60
74101;DHT22;62462;52.530;21.682;2022-10-16T02:14:32;16.30;69.80
74101;DHT22;62462;52.530;21.682;2022-10-16T02:16:58;16.20;69.90
74101;DHT22;62462;52.530;21.682;2022-10-16T02:19:24;16.20;70.00
74101;DHT22;62462;52.530;21.682;2022-10-16T02:22:03;16.20;70.30
74101;DHT22;62462;52.530;21.682;2022-10-16T02:27:27;16.10;70.80
74101;DHT22;62462;52.530;21.682;2022-10-16T02:32:53;16.20;70.90
74101;DHT22;62462;52.530;21.682;2022-10-16T02:35:21;16.10;71.20
74101;DHT22;62462;52.530;21.682;2022-10-16T02:37:49;16.10;71.50
74101;DHT22;62462;52.530;21.682;2022-10-16T02:40:15;16.10;71.90
74101;DHT22;62462;52.530;21.682;2022-10-16T02:42:42;16.10;71.70
74101;DHT22;62462;52.530;21.682;2022-10-16T02:45:09;16.10;71.90
74101;DHT22;62462;52.530;21.682;2022-10-16T02:47:35;16.00;72.10
74101;DHT22;62462;52.530;21.682;2022-10-16T02:50:01;16.00;72.30
74101;DHT22;62462;52.530;21.682;2022-10-16T02:52:27;16.00;72.40
74101;DHT22;62462;52.530;21.682;2022-10-16T02:54:52;16.00;72.40
74101;DHT22;62462;52.530;21.682;2022-10-16T02:57:18;15.90;72.40
74101;DHT22;62462;52.530;21.682;2022-10-16T02:59:44;15.90;72.50
74101;DHT22;62462;52.530;21.682;2022-10-16T03:02:11;15.90;72.60
74101;DHT22;62462;52.530;21.682;2022-10-16T03:04:36;15.80;72.60
74101;DHT22;62462;52.530;21.682;2022-10-16T03:07:02;15.80;72.90
74101;DHT22;62462;52.530;21.682;2022-10-16T03:09:28;15.80;73.00
74101;DHT22;62462;52.530;21.682;2022-10-16T03:11:54;15.70;73.10
74101;DHT22;62462;52.530;21.682;2022-10-16T03:14:20;15.70;73.30
74101;DHT22;62462;52.530;21.682;2022-10-16T03:16:45;15.70;73.30
74101;DHT22;62462;52.530;21.682;2022-10-16T03:19:11;15.70;73.50
74101;DHT22;62462;52.530;21.682;2022-10-16T03:21:37;15.70;73.60
74101;DHT22;62462;52.530;21.682;2022-10-16T03:24:03;15.70;73.60
74101;DHT22;62462;52.530;21.682;2022-10-16T03:26:28;15.70;73.50
74101;DHT22;62462;52.530;21.682;2022-10-16T03:28:54;15.70;73.50
74101;DHT22;62462;52.530;21.682;2022-10-16T03:31:20;15.70;73.40
74101;DHT22;62462;52.530;21.682;2022-10-16T03:33:45;15.70;73.40
74101;DHT22;62462;52.530;21.682;2022-10-16T03:36:11;15.70;73.50
74101;DHT22;62462;52.530;21.682;2022-10-16T03:38:37;15.70;73.70
74101;DHT22;62462;52.530;21.682;2022-10-16T03:41:02;15.70;73.60
74101;DHT22;62462;52.530;21.682;2022-10-16T03:43:29;15.70;73.40
74101;DHT22;62462;52.530;21.682;2022-10-16T03:45:54;15.70;74.30
74101;DHT22;62462;52.530;21.682;2022-10-16T03:48:20;15.70;73.60
74101;DHT22;62462;52.530;21.682;2022-10-16T03:50:46;15.70;73.60
74101;DHT22;62462;52.530;21.682;2022-10-16T03:53:14;15.70;73.70
74101;DHT22;62462;52.530;21.682;2022-10-16T03:55:42;15.70;73.70
74101;DHT22;62462;52.530;21.682;2022-10-16T03:58:08;15.70;73.80
74101;DHT22;62462;52.530;21.682;2022-10-16T04:00:33;15.70;73.70
74101;DHT22;62462;52.530;21.682;2022-10-16T04:03:00;15.70;73.80
74101;DHT22;62462;52.530;21.682;2022-10-16T04:05:26;15.70;73.70
74101;DHT22;62462;52.530;21.682;2022-10-16T04:07:51;15.60;73.80
74101;DHT22;62462;52.530;21.682;2022-10-16T04:10:17;15.60;73.70
74101;DHT22;62462;52.530;21.682;2022-10-16T04:12:44;15.70;73.90
74101;DHT22;62462;52.530;21.682;2022-10-16T04:15:10;15.60;73.90
74101;DHT22;62462;52.530;21.682;2022-10-16T04:17:35;15.60;74.10
74101;DHT22;62462;52.530;21.682;2022-10-16T04:20:01;15.60;74.00
74101;DHT22;62462;52.530;21.682;2022-10-16T04:22:27;15.60;74.30
74101;DHT22;62462;52.530;21.682;2022-10-16T04:24:53;15.60;74.30
74101;DHT22;62462;52.530;21.682;2022-10-16T04:27:19;15.60;74.30
74101;DHT22;62462;52.530;21.682;2022-10-16T04:29:44;15.60;74.40
74101;DHT22;62462;52.530;21.682;2022-10-16T04:32:10;15.60;74.30
74101;DHT22;62462;52.530;21.682;2022-10-16T04:34:36;15.60;74.30
74101;DHT22;62462;52.530;21.682;2022-10-16T04:37:04;15.60;74.30
74101;DHT22;62462;52.530;21.682;2022-10-16T04:39:30;15.60;74.10
74101;DHT22;62462;52.530;21.682;2022-10-16T04:41:56;15.60;74.00
74101;DHT22;62462;52.530;21.682;2022-10-16T04:44:21;15.60;74.00
74101;DHT22;62462;52.530;21.682;2022-10-16T04:46:49;15.70;73.90
74101;DHT22;62462;52.530;21.682;2022-10-16T04:49:15;15.60;73.80
74101;DHT22;62462;52.530;21.682;2022-10-16T04:51:40;15.70;74.00
74101;DHT22;62462;52.530;21.682;2022-10-16T04:54:06;15.60;74.00
74101;DHT22;62462;52.530;21.682;2022-10-16T04:56:32;15.60;74.00
74101;DHT22;62462;52.530;21.682;2022-10-16T04:58:57;15.60;74.00
74101;DHT22;62462;52.530;21.682;2022-10-16T05:01:23;15.60;74.00
74101;DHT22;62462;52.530;21.682;2022-10-16T05:03:49;15.60;74.00
74101;DHT22;62462;52.530;21.682;2022-10-16T05:06:14;15.60;74.10
74101;DHT22;62462;52.530;21.682;2022-10-16T05:08:40;15.60;74.10
74101;DHT22;62462;52.530;21.682;2022-10-16T05:11:06;15.60;74.10
74101;DHT22;62462;52.530;21.682;2022-10-16T05:13:31;15.60;74.00
74101;DHT22;62462;52.530;21.682;2022-10-16T05:15:57;15.60;74.30
74101;DHT22;62462;52.530;21.682;2022-10-16T05:18:23;15.60;74.30
74101;DHT22;62462;52.530;21.682;2022-10-16T05:20:48;15.60;74.30
74101;DHT22;62462;52.530;21.682;2022-10-16T05:23:14;15.60;74.10
74101;DHT22;62462;52.530;21.682;2022-10-16T05:25:40;15.60;74.20
74101;DHT22;62462;52.530;21.682;2022-10-16T05:28:05;15.70;74.10
74101;DHT22;62462;52.530;21.682;2022-10-16T05:30:31;15.70;74.00
74101;DHT22;62462;52.530;21.682;2022-10-16T05:32:57;15.70;74.00
74101;DHT22;62462;52.530;21.682;2022-10-16T05:35:22;15.70;73.90
74101;DHT22;62462;52.530;21.682;2022-10-16T05:37:48;15.70;73.90
74101;DHT22;62462;52.530;21.682;2022-10-16T05:40:14;15.70;73.70
74101;DHT22;62462;52.530;21.682;2022-10-16T05:42:40;15.70;73.70
74101;DHT22;62462;52.530;21.682;2022-10-16T05:45:06;15.70;73.70
74101;DHT22;62462;52.530;21.682;2022-10-16T05:47:33;15.70;73.60
74101;DHT22;62462;52.530;21.682;2022-10-16T05:49:59;15.70;73.60
74101;DHT22;62462;52.530;21.682;2022-10-16T05:52:26;15.70;73.40
74101;DHT22;62462;52.530;21.682;2022-10-16T05:54:52;15.70;73.30
74101;DHT22;62462;52.530;21.682;2022-10-16T05:57:18;15.80;73.20
74101;DHT22;62462;52.530;21.682;2022-10-16T05:59:43;15.80;73.00
74101;DHT22;62462;52.530;21.682;2022-10-16T06:02:15;16.00;72.80
74101;DHT22;62462;52.530;21.682;2022-10-16T06:04:41;16.10;72.50
74101;DHT22;62462;52.530;21.682;2022-10-16T06:07:07;16.10;72.00
74101;DHT22;62462;52.530;21.682;2022-10-16T06:09:32;16.20;71.80
74101;DHT22;62462;52.530;21.682;2022-10-16T06:11:58;16.20;71.60
74101;DHT22;62462;52.530;21.682;2022-10-16T06:14:24;16.30;71.50
74101;DHT22;62462;52.530;21.682;2022-10-16T06:16:50;16.40;71.40
74101;DHT22;62462;52.530;21.682;2022-10-16T06:19:15;16.50;71.20
74101;DHT22;62462;52.530;21.682;2022-10-16T06:21:43;16.50;70.90
74101;DHT22;62462;52.530;21.682;2022-10-16T06:24:09;16.50;70.70
74101;DHT22;62462;52.530;21.682;2022-10-16T06:26:35;16.40;70.80
74101;DHT22;62462;52.530;21.682;2022-10-16T06:29:01;16.30;71.00
74101;DHT22;62462;52.530;21.682;2022-10-16T06:31:27;16.30;71.20
74101;DHT22;62462;52.530;21.682;2022-10-16T06:33:57;16.50;71.20
74101;DHT22;62462;52.530;21.682;2022-10-16T06:36:23;16.60;70.90
74101;DHT22;62462;52.530;21.682;2022-10-16T06:38:50;16.70;69.90
74101;DHT22;62462;52.530;21.682;2022-10-16T06:41:17;16.80;69.60
74101;DHT22;62462;52.530;21.682;2022-10-16T06:43:44;16.90;69.60
74101;DHT22;62462;52.530;21.682;2022-10-16T06:46:15;17.00;69.40
74101;DHT22;62462;52.530;21.682;2022-10-16T06:48:42;17.10;68.70
74101;DHT22;62462;52.530;21.682;2022-10-16T06:51:13;17.20;68.40
74101;DHT22;62462;52.530;21.682;2022-10-16T06:53:50;17.30;67.80
74101;DHT22;62462;52.530;21.682;2022-10-16T06:56:19;17.40;68.10
74101;DHT22;62462;52.530;21.682;2022-10-16T06:58:45;17.50;67.70
74101;DHT22;62462;52.530;21.682;2022-10-16T07:01:13;17.50;67.00
74101;DHT22;62462;52.530;21.682;2022-10-16T07:03:41;17.60;67.00
74101;DHT22;62462;52.530;21.682;2022-10-16T07:06:08;17.60;67.00
74101;DHT22;62462;52.530;21.682;2022-10-16T07:08:36;17.70;66.20
74101;DHT22;62462;52.530;21.682;2022-10-16T07:11:05;17.80;67.00
74101;DHT22;62462;52.530;21.682;2022-10-16T07:13:38;18.00;66.00
74101;DHT22;62462;52.530;21.682;2022-10-16T07:16:10;18.10;65.40
74101;DHT22;62462;52.530;21.682;2022-10-16T07:18:36;18.20;65.30
74101;DHT22;62462;52.530;21.682;2022-10-16T07:21:15;18.30;64.70
74101;DHT22;62462;52.530;21.682;2022-10-16T07:23:41;18.30;64.90
74101;DHT22;62462;52.530;21.682;2022-10-16T07:26:07;18.50;64.50
74101;DHT22;62462;52.530;21.682;2022-10-16T07:28:33;18.40;63.60
74101;DHT22;62462;52.530;21.682;2022-10-16T07:31:07;18.40;64.00
74101;DHT22;62462;52.530;21.682;2022-10-16T07:33:34;18.50;63.60
74101;DHT22;62462;52.530;21.682;2022-10-16T07:35:59;18.60;63.40
74101;DHT22;62462;52.530;21.682;2022-10-16T07:38:25;18.60;63.00
74101;DHT22;62462;52.530;21.682;2022-10-16T07:41:03;18.60;63.70
74101;DHT22;62462;52.530;21.682;2022-10-16T07:43:29;18.70;63.30
74101;DHT22;62462;52.530;21.682;2022-10-16T07:45:55;18.80;63.40
74101;DHT22;62462;52.530;21.682;2022-10-16T07:48:22;18.90;62.60
74101;DHT22;62462;52.530;21.682;2022-10-16T07:50:48;18.80;62.90
74101;DHT22;62462;52.530;21.682;2022-10-16T07:53:14;18.70;62.60
74101;DHT22;62462;52.530;21.682;2022-10-16T07:55:40;18.50;63.00
74101;DHT22;62462;52.530;21.682;2022-10-16T07:58:06;18.50;63.60
74101;DHT22;62462;52.530;21.682;2022-10-16T08:00:33;18.40;63.80
74101;DHT22;62462;52.530;21.682;2022-10-16T08:02:59;18.40;64.80
74101;DHT22;62462;52.530;21.682;2022-10-16T08:05:29;18.60;64.00
74101;DHT22;62462;52.530;21.682;2022-10-16T08:07:55;18.70;63.60
74101;DHT22;62462;52.530;21.682;2022-10-16T08:10:23;18.80;63.40
74101;DHT22;62462;52.530;21.682;2022-10-16T08:12:50;18.60;62.50
74101;DHT22;62462;52.530;21.682;2022-10-16T08:15:16;18.60;64.30
74101;DHT22;62462;52.530;21.682;2022-10-16T08:17:42;18.60;63.70
74101;DHT22;62462;52.530;21.682;2022-10-16T08:20:09;18.50;63.70
74101;DHT22;62462;52.530;21.682;2022-10-16T08:22:35;18.50;64.10
74101;DHT22;62462;52.530;21.682;2022-10-16T08:25:01;18.50;63.90
74101;DHT22;62462;52.530;21.682;2022-10-16T08:27:31;18.60;64.50
74101;DHT22;62462;52.530;21.682;2022-10-16T08:29:57;18.60;63.60
74101;DHT22;62462;52.530;21.682;2022-10-16T08:32:23;18.60;63.30
74101;DHT22;62462;52.530;21.682;2022-10-16T08:34:49;18.60;62.90
74101;DHT22;62462;52.530;21.682;2022-10-16T08:37:14;18.50;63.40
74101;DHT22;62462;52.530;21.682;2022-10-16T08:39:40;18.30;63.60
74101;DHT22;62462;52.530;21.682;2022-10-16T08:47:51;18.40;64.40
74101;DHT22;62462;52.530;21.682;2022-10-16T08:50:27;18.50;65.00
74101;DHT22;62462;52.530;21.682;2022-10-16T08:52:54;18.80;64.50
74101;DHT22;62462;52.530;21.682;2022-10-16T08:55:41;19.10;62.40
74101;DHT22;62462;52.530;21.682;2022-10-16T08:58:35;19.50;62.50
74101;DHT22;62462;52.530;21.682;2022-10-16T09:01:03;19.80;61.20
74101;DHT22;62462;52.530;21.682;2022-10-16T09:08:59;19.70;60.10
74101;DHT22;62462;52.530;21.682;2022-10-16T09:19:53;19.90;59.60
74101;DHT22;62462;52.530;21.682;2022-10-16T09:22:22;19.90;59.60
74101;DHT22;62462;52.530;21.682;2022-10-16T09:24:50;19.80;59.60
74101;DHT22;62462;52.530;21.682;2022-10-16T09:27:16;19.80;60.00
74101;DHT22;62462;52.530;21.682;2022-10-16T09:29:42;19.70;59.90
74101;DHT22;62462;52.530;21.682;2022-10-16T09:32:12;19.70;60.30
74101;DHT22;62462;52.530;21.682;2022-10-16T09:34:43;19.80;60.40
74101;DHT22;62462;52.530;21.682;2022-10-16T09:37:14;20.00;60.70
74101;DHT22;62462;52.530;21.682;2022-10-16T09:39:46;20.20;59.90
74101;DHT22;62462;52.530;21.682;2022-10-16T09:42:33;20.20;58.80
74101;DHT22;62462;52.530;21.682;2022-10-16T09:44:59;20.10;58.80
74101;DHT22;62462;52.530;21.682;2022-10-16T09:47:29;20.20;59.30
74101;DHT22;62462;52.530;21.682;2022-10-16T09:49:59;20.20;59.10
74101;DHT22;62462;52.530;21.682;2022-10-16T09:52:28;20.30;59.40
74101;DHT22;62462;52.530;21.682;2022-10-16T09:54:55;20.50;58.60
74101;DHT22;62462;52.530;21.682;2022-10-16T09:57:22;20.70;57.80
74101;DHT22;62462;52.530;21.682;2022-10-16T09:59:53;20.70;56.70
74101;DHT22;62462;52.530;21.682;2022-10-16T10:02:31;20.50;57.60
74101;DHT22;62462;52.530;21.682;2022-10-16T10:04:59;20.60;58.70
74101;DHT22;62462;52.530;21.682;2022-10-16T10:07:31;20.70;58.20
74101;DHT22;62462;52.530;21.682;2022-10-16T10:10:03;20.70;58.40
74101;DHT22;62462;52.530;21.682;2022-10-16T10:12:30;20.70;58.60
74101;DHT22;62462;52.530;21.682;2022-10-16T10:15:10;20.70;58.20
74101;DHT22;62462;52.530;21.682;2022-10-16T10:17:47;20.50;57.80
74101;DHT22;62462;52.530;21.682;2022-10-16T10:20:26;20.40;58.70
74101;DHT22;62462;52.530;21.682;2022-10-16T10:22:53;20.30;59.40
74101;DHT22;62462;52.530;21.682;2022-10-16T10:25:26;20.30;60.10
74101;DHT22;62462;52.530;21.682;2022-10-16T10:38:58;20.20;59.90
74101;DHT22;62462;52.530;21.682;2022-10-16T10:44:27;20.10;60.70
74101;DHT22;62462;52.530;21.682;2022-10-16T10:47:23;20.10;61.00
74101;DHT22;62462;52.530;21.682;2022-10-16T10:56:00;20.10;60.60
74101;DHT22;62462;52.530;21.682;2022-10-16T11:01:50;20.10;60.50
74101;DHT22;62462;52.530;21.682;2022-10-16T11:07:18;20.10;60.90
74101;DHT22;62462;52.530;21.682;2022-10-16T11:09:51;20.00;60.70
74101;DHT22;62462;52.530;21.682;2022-10-16T11:12:22;20.10;60.80
74101;DHT22;62462;52.530;21.682;2022-10-16T11:15:03;20.10;60.40
74101;DHT22;62462;52.530;21.682;2022-10-16T11:17:38;20.20;60.50
74101;DHT22;62462;52.530;21.682;2022-10-16T11:20:16;20.40;60.70
74101;DHT22;62462;52.530;21.682;2022-10-16T11:25:32;20.40;59.90
74101;DHT22;62462;52.530;21.682;2022-10-16T11:28:02;20.30;59.30
74101;DHT22;62462;52.530;21.682;2022-10-16T11:30:40;20.30;60.00
74101;DHT22;62462;52.530;21.682;2022-10-16T11:33:39;20.30;60.30
74101;DHT22;62462;52.530;21.682;2022-10-16T11:36:13;20.40;60.30
74101;DHT22;62462;52.530;21.682;2022-10-16T11:39:00;20.40;60.00
74101;DHT22;62462;52.530;21.682;2022-10-16T11:41:29;20.40;60.00
74101;DHT22;62462;52.530;21.682;2022-10-16T11:46:32;20.70;59.70
74101;DHT22;62462;52.530;21.682;2022-10-16T11:49:22;20.80;58.80
74101;DHT22;62462;52.530;21.682;2022-10-16T11:52:07;21.10;59.60
74101;DHT22;62462;52.530;21.682;2022-10-16T11:57:16;21.40;57.40
74101;DHT22;62462;52.530;21.682;2022-10-16T12:02:28;21.90;57.50
74101;DHT22;62462;52.530;21.682;2022-10-16T12:08:09;22.20;56.30
74101;DHT22;62462;52.530;21.682;2022-10-16T12:10:38;22.30;55.70
74101;DHT22;62462;52.530;21.682;2022-10-16T12:13:26;22.10;54.30
74101;DHT22;62462;52.530;21.682;2022-10-16T12:15:50;22.10;55.60
74101;DHT22;62462;52.530;21.682;2022-10-16T12:18:23;22.10;54.90
74101;DHT22;62462;52.530;21.682;2022-10-16T12:20:59;21.90;54.90
74101;DHT22;62462;52.530;21.682;2022-10-16T12:23:31;22.10;55.50
74101;DHT22;62462;52.530;21.682;2022-10-16T12:26:01;22.30;54.50
74101;DHT22;62462;52.530;21.682;2022-10-16T12:28:29;22.30;54.00
74101;DHT22;62462;52.530;21.682;2022-10-16T12:30:59;22.10;53.60
74101;DHT22;62462;52.530;21.682;2022-10-16T12:33:53;21.80;54.70
74101;DHT22;62462;52.530;21.682;2022-10-16T12:36:27;21.70;55.90
74101;DHT22;62462;52.530;21.682;2022-10-16T12:38:54;21.60;55.60
74101;DHT22;62462;52.530;21.682;2022-10-16T12:41:33;21.60;55.70
74101;DHT22;62462;52.530;21.682;2022-10-16T12:44:00;21.50;56.30
74101;DHT22;62462;52.530;21.682;2022-10-16T12:49:20;21.40;56.80
74101;DHT22;62462;52.530;21.682;2022-10-16T12:51:47;21.40;57.50
74101;DHT22;62462;52.530;21.682;2022-10-16T13:02:51;21.20;57.70
74101;DHT22;62462;52.530;21.682;2022-10-16T13:05:41;21.30;57.70
74101;DHT22;62462;52.530;21.682;2022-10-16T13:08:29;21.30;57.90
74101;DHT22;62462;52.530;21.682;2022-10-16T13:18:42;21.10;57.80
74101;DHT22;62462;52.530;21.682;2022-10-16T13:21:31;21.10;58.20
74101;DHT22;62462;52.530;21.682;2022-10-16T13:27:01;21.10;58.40
74101;DHT22;62462;52.530;21.682;2022-10-16T13:29:32;21.10;58.30
74101;DHT22;62462;52.530;21.682;2022-10-16T13:32:00;21.20;58.20
74101;DHT22;62462;52.530;21.682;2022-10-16T13:34:28;21.30;57.90
74101;DHT22;62462;52.530;21.682;2022-10-16T13:36:54;21.60;57.90
74101;DHT22;62462;52.530;21.682;2022-10-16T13:39:24;21.60;57.50
74101;DHT22;62462;52.530;21.682;2022-10-16T13:42:06;21.50;57.50
74101;DHT22;62462;52.530;21.682;2022-10-16T13:44:40;21.40;57.50
74101;DHT22;62462;52.530;21.682;2022-10-16T13:47:25;21.20;58.00
74101;DHT22;62462;52.530;21.682;2022-10-16T13:50:05;21.10;58.20
74101;DHT22;62462;52.530;21.682;2022-10-16T13:52:31;21.00;58.70
74101;DHT22;62462;52.530;21.682;2022-10-16T13:54:57;21.00;58.90
74101;DHT22;62462;52.530;21.682;2022-10-16T13:57:24;20.80;59.10
74101;DHT22;62462;52.530;21.682;2022-10-16T13:59:50;20.80;59.10
74101;DHT22;62462;52.530;21.682;2022-10-16T14:04:52;20.60;59.80
74101;DHT22;62462;52.530;21.682;2022-10-16T14:07:25;20.60;60.50
74101;DHT22;62462;52.530;21.682;2022-10-16T14:09:52;20.60;61.00
74101;DHT22;62462;52.530;21.682;2022-10-16T14:12:18;20.50;61.80
74101;DHT22;62462;52.530;21.682;2022-10-16T14:14:47;20.40;62.00
74101;DHT22;62462;52.530;21.682;2022-10-16T14:17:19;20.40;62.50
74101;DHT22;62462;52.530;21.682;2022-10-16T14:19:50;20.40;62.70
74101;DHT22;62462;52.530;21.682;2022-10-16T14:22:22;20.30;62.70
74101;DHT22;62462;52.530;21.682;2022-10-16T14:24:49;20.30;62.80
74101;DHT22;62462;52.530;21.682;2022-10-16T14:27:33;20.30;62.80
74101;DHT22;62462;52.530;21.682;2022-10-16T14:30:16;20.30;63.30
74101;DHT22;62462;52.530;21.682;2022-10-16T14:32:56;20.30;63.20
74101;DHT22;62462;52.530;21.682;2022-10-16T14:35:38;20.30;63.20
74101;DHT22;62462;52.530;21.682;2022-10-16T14:38:06;20.30;63.10
74101;DHT22;62462;52.530;21.682;2022-10-16T14:40:47;20.30;62.90
74101;DHT22;62462;52.530;21.682;2022-10-16T14:43:33;20.30;62.90
74101;DHT22;62462;52.530;21.682;2022-10-16T14:46:00;20.30;63.10
74101;DHT22;62462;52.530;21.682;2022-10-16T14:48:27;20.30;63.10
74101;DHT22;62462;52.530;21.682;2022-10-16T14:50:53;20.30;63.10
74101;DHT22;62462;52.530;21.682;2022-10-16T14:53:18;20.30;63.10
74101;DHT22;62462;52.530;21.682;2022-10-16T14:55:44;20.30;63.20
74101;DHT22;62462;52.530;21.682;2022-10-16T14:58:29;20.30;63.20
74101;DHT22;62462;52.530;21.682;2022-10-16T15:00:55;20.20;63.30
74101;DHT22;62462;52.530;21.682;2022-10-16T15:03:21;20.20;63.40
74101;DHT22;62462;52.530;21.682;2022-10-16T15:05:47;20.20;63.50
74101;DHT22;62462;52.530;21.682;2022-10-16T15:08:12;20.20;63.70
74101;DHT22;62462;52.530;21.682;2022-10-16T15:10:42;20.20;63.60
74101;DHT22;62462;52.530;21.682;2022-10-16T15:13:13;20.20;63.60
74101;DHT22;62462;52.530;21.682;2022-10-16T15:15:46;20.20;63.60
74101;DHT22;62462;52.530;21.682;2022-10-16T15:18:13;20.20;63.50
74101;DHT22;62462;52.530;21.682;2022-10-16T15:20:40;20.10;63.40
74101;DHT22;62462;52.530;21.682;2022-10-16T15:23:13;20.10;63.40
74101;DHT22;62462;52.530;21.682;2022-10-16T15:25:47;20.10;63.40
74101;DHT22;62462;52.530;21.682;2022-10-16T15:28:14;20.10;63.40
74101;DHT22;62462;52.530;21.682;2022-10-16T15:30:40;20.10;63.40
74101;DHT22;62462;52.530;21.682;2022-10-16T15:33:13;20.10;63.40
74101;DHT22;62462;52.530;21.682;2022-10-16T15:35:39;20.10;63.40
74101;DHT22;62462;52.530;21.682;2022-10-16T15:38:05;20.10;63.50
74101;DHT22;62462;52.530;21.682;2022-10-16T15:40:31;20.00;63.50
74101;DHT22;62462;52.530;21.682;2022-10-16T15:42:56;20.00;63.50
74101;DHT22;62462;52.530;21.682;2022-10-16T15:45:22;20.00;63.60
74101;DHT22;62462;52.530;21.682;2022-10-16T15:47:48;20.00;63.50
74101;DHT22;62462;52.530;21.682;2022-10-16T15:50:15;20.00;63.60
74101;DHT22;62462;52.530;21.682;2022-10-16T15:52:41;20.00;63.60
74101;DHT22;62462;52.530;21.682;2022-10-16T15:55:09;20.00;63.70
74101;DHT22;62462;52.530;21.682;2022-10-16T15:57:36;20.00;63.70
74101;DHT22;62462;52.530;21.682;2022-10-16T16:00:06;20.00;63.70
74101;DHT22;62462;52.530;21.682;2022-10-16T16:02:32;20.00;63.70
74101;DHT22;62462;52.530;21.682;2022-10-16T16:04:57;19.90;63.80
74101;DHT22;62462;52.530;21.682;2022-10-16T16:07:24;19.90;63.80
74101;DHT22;62462;52.530;21.682;2022-10-16T16:09:49;19.90;63.80
74101;DHT22;62462;52.530;21.682;2022-10-16T16:12:15;19.90;63.80
74101;DHT22;62462;52.530;21.682;2022-10-16T16:14:41;19.90;63.90
74101;DHT22;62462;52.530;21.682;2022-10-16T16:17:07;19.90;63.90
74101;DHT22;62462;52.530;21.682;2022-10-16T16:19:33;19.90;63.90
74101;DHT22;62462;52.530;21.682;2022-10-16T16:21:59;19.90;63.90
74101;DHT22;62462;52.530;21.682;2022-10-16T16:24:24;19.90;64.00
74101;DHT22;62462;52.530;21.682;2022-10-16T16:26:50;19.80;64.00
74101;DHT22;62462;52.530;21.682;2022-10-16T16:29:16;19.80;64.00
74101;DHT22;62462;52.530;21.682;2022-10-16T16:31:42;19.80;64.10
74101;DHT22;62462;52.530;21.682;2022-10-16T16:34:08;19.80;64.10
74101;DHT22;62462;52.530;21.682;2022-10-16T16:36:34;19.80;64.30
74101;DHT22;62462;52.530;21.682;2022-10-16T16:39:01;19.80;64.20
74101;DHT22;62462;52.530;21.682;2022-10-16T16:41:28;19.80;64.40
74101;DHT22;62462;52.530;21.682;2022-10-16T16:43:56;19.70;64.50
74101;DHT22;62462;52.530;21.682;2022-10-16T16:46:26;19.70;64.70
74101;DHT22;62462;52.530;21.682;2022-10-16T16:48:52;19.70;64.80
74101;DHT22;62462;52.530;21.682;2022-10-16T16:51:21;19.70;64.70
74101;DHT22;62462;52.530;21.682;2022-10-16T16:53:48;19.70;64.90
74101;DHT22;62462;52.530;21.682;2022-10-16T16:56:15;19.70;64.80
74101;DHT22;62462;52.530;21.682;2022-10-16T16:58:41;19.70;64.80
74101;DHT22;62462;52.530;21.682;2022-10-16T17:01:09;19.70;64.80
74101;DHT22;62462;52.530;21.682;2022-10-16T17:03:35;19.70;64.70
74101;DHT22;62462;52.530;21.682;2022-10-16T17:06:06;19.70;64.60
74101;DHT22;62462;52.530;21.682;2022-10-16T17:08:34;19.70;64.80
74101;DHT22;62462;52.530;21.682;2022-10-16T17:11:01;19.70;64.90
74101;DHT22;62462;52.530;21.682;2022-10-16T17:13:29;19.70;64.90